createdAt,value
2023-05-23T00:00:58.609Z,39.73
2023-05-23T00:06:04.873Z,39.90
2023-05-23T00:11:10.644Z,40.07
2023-05-23T00:16:16.579Z,40.48
2023-05-23T00:21:22.395Z,40.80
2023-05-23T00:26:30.212Z,40.78
2023-05-23T00:31:35.919Z,40.98
2023-05-23T00:36:43.517Z,40.94
2023-05-23T00:41:52.150Z,41.12
2023-05-23T00:46:59.459Z,41.19
2023-05-23T00:52:05.670Z,41.26
2023-05-23T00:57:11.520Z,41.37
2023-05-23T01:02:17.150Z,41.41
2023-05-23T01:07:23.124Z,41.44
2023-05-23T01:12:51.313Z,41.45
2023-05-23T01:18:04.385Z,41.81
2023-05-23T01:23:29.593Z,42.10
2023-05-23T01:28:38.822Z,42.22
2023-05-23T01:33:47.328Z,42.69
2023-05-23T01:38:52.927Z,43.17
2023-05-23T01:43:58.704Z,43.54
2023-05-23T01:49:07.031Z,43.76
2023-05-23T01:54:14.689Z,43.97
2023-05-23T01:59:20.472Z,44.19
2023-05-23T02:04:26.594Z,44.67
2023-05-23T02:09:32.262Z,44.89
2023-05-23T02:14:37.896Z,45.15
2023-05-23T02:19:43.454Z,45.50
2023-05-23T02:24:51.669Z,45.75
2023-05-23T02:29:57.338Z,45.85
2023-05-23T02:35:03.311Z,46.30
2023-05-23T02:40:10.381Z,46.41
2023-05-23T02:45:16.153Z,46.69
2023-05-23T02:50:21.920Z,46.85
2023-05-23T02:55:27.902Z,47.18
2023-05-23T03:00:33.797Z,47.38
2023-05-23T03:05:39.839Z,47.56
2023-05-23T03:10:45.617Z,47.79
2023-05-23T03:15:51.672Z,47.73
2023-05-23T03:20:57.550Z,47.99
2023-05-23T03:26:04.301Z,48.05
2023-05-23T03:31:10.214Z,48.29
2023-05-23T03:36:16.086Z,48.38
2023-05-23T03:41:21.944Z,48.59
2023-05-23T03:46:28.547Z,48.71
2023-05-23T03:51:35.029Z,48.76
2023-05-23T03:56:41.135Z,48.98
2023-05-23T04:01:47.389Z,48.94
2023-05-23T04:06:53.608Z,47.31
2023-05-23T04:12:00.086Z,48.37
2023-05-23T04:17:06.364Z,48.67
2023-05-23T04:22:12.008Z,48.96
2023-05-23T04:27:17.966Z,49.15
2023-05-23T04:32:24.270Z,49.22
2023-05-23T04:37:32.877Z,49.26
2023-05-23T04:42:38.974Z,49.48
2023-05-23T04:47:46.918Z,49.51
2023-05-23T04:52:54.213Z,49.76
2023-05-23T04:58:01.302Z,49.63
2023-05-23T05:03:09.097Z,49.86
2023-05-23T05:08:18.048Z,50.14
2023-05-23T05:13:24.228Z,50.31
2023-05-23T05:18:32.300Z,50.53
2023-05-23T05:23:38.457Z,50.85
2023-05-23T05:28:45.842Z,50.87
2023-05-23T05:33:52.127Z,50.86
2023-05-23T05:38:57.789Z,50.83
2023-05-23T05:44:04.173Z,50.69
2023-05-23T05:49:11.727Z,50.74
2023-05-23T05:54:19.199Z,50.41
2023-05-23T05:59:25.165Z,49.95
2023-05-23T06:04:31.222Z,49.43
2023-05-23T06:09:37.233Z,49.22
2023-05-23T06:14:42.905Z,48.78
2023-05-23T06:19:48.861Z,48.59
2023-05-23T06:24:54.971Z,48.78
2023-05-23T06:30:02.144Z,49.06
2023-05-23T06:35:08.902Z,49.22
2023-05-23T06:40:15.062Z,49.42
2023-05-23T06:45:20.780Z,49.84
2023-05-23T06:50:26.345Z,49.89
2023-05-23T06:55:34.077Z,49.93
2023-05-23T07:00:40.399Z,49.92
2023-05-23T07:05:47.914Z,50.03
2023-05-23T07:10:54.957Z,50.20
2023-05-23T07:16:02.497Z,50.29
2023-05-23T07:21:09.254Z,50.30
2023-05-23T07:26:15.561Z,50.31
2023-05-23T07:31:23.046Z,50.53
2023-05-23T07:36:32.156Z,50.89
2023-05-23T07:41:38.274Z,51.18
2023-05-23T07:46:44.058Z,51.24
2023-05-23T07:51:49.920Z,51.71
2023-05-23T07:56:56.397Z,51.52
2023-05-23T08:02:02.921Z,52.39
2023-05-23T08:07:11.206Z,52.58
2023-05-23T08:12:27.511Z,52.58
2023-05-23T08:17:36.545Z,52.96
2023-05-23T08:22:42.779Z,52.96
2023-05-23T08:27:48.834Z,52.92
2023-05-23T08:32:58.068Z,53.09
2023-05-23T08:38:07.921Z,53.00
2023-05-23T08:43:15.162Z,53.44
2023-05-23T08:48:22.147Z,53.52
2023-05-23T08:53:30.300Z,53.32
2023-05-23T08:58:43.288Z,53.44
2023-05-23T09:03:51.113Z,53.26
2023-05-23T09:09:05.008Z,53.05
2023-05-23T09:14:10.862Z,52.93
2023-05-23T09:19:17.067Z,52.64
2023-05-23T09:24:24.566Z,52.33
2023-05-23T09:29:30.242Z,52.35
2023-05-23T09:34:36.262Z,52.65
2023-05-23T09:39:46.599Z,52.32
2023-05-23T09:44:53.169Z,51.76
2023-05-23T09:49:59.097Z,51.05
2023-05-23T09:55:05.417Z,50.90
2023-05-23T10:00:13.725Z,50.59
2023-05-23T10:05:21.666Z,50.19
2023-05-23T10:10:29.801Z,49.86
2023-05-23T10:15:38.396Z,49.66
2023-05-23T10:20:47.022Z,48.83
2023-05-23T10:25:53.249Z,49.32
2023-05-23T10:31:00.196Z,48.37
2023-05-23T10:36:18.087Z,48.71
2023-05-23T10:41:46.497Z,48.47
2023-05-23T10:47:01.918Z,47.48
2023-05-23T10:52:08.563Z,47.65
2023-05-23T10:57:18.993Z,46.68
2023-05-23T11:02:29.752Z,46.43
2023-05-23T11:07:36.452Z,45.76
2023-05-23T11:12:46.289Z,45.18
2023-05-23T11:17:56.746Z,44.62
2023-05-23T11:23:04.553Z,44.37
2023-05-23T11:28:11.139Z,44.58
2023-05-23T11:33:18.523Z,43.89
2023-05-23T11:38:24.338Z,43.64
2023-05-23T11:43:29.970Z,43.73
2023-05-23T11:48:36.529Z,43.13
2023-05-23T11:53:42.320Z,43.48
2023-05-23T11:58:48.058Z,43.01
2023-05-23T12:03:53.948Z,43.30
2023-05-23T12:09:01.259Z,43.55
2023-05-23T12:14:07.905Z,43.25
2023-05-23T12:19:13.925Z,42.77
2023-05-23T12:24:22.130Z,43.36
2023-05-23T12:29:39.274Z,43.15
2023-05-23T12:34:44.870Z,43.56
2023-05-23T12:39:50.610Z,42.13
2023-05-23T12:44:56.839Z,41.60
2023-05-23T12:50:02.468Z,41.69
2023-05-23T12:55:10.006Z,42.14
2023-05-23T13:00:36.923Z,41.69
2023-05-23T13:05:42.813Z,41.26
2023-05-23T13:10:48.556Z,42.68
2023-05-23T13:15:54.328Z,41.79
2023-05-23T13:21:00.512Z,42.02
2023-05-23T13:26:06.720Z,41.88
2023-05-23T13:31:12.501Z,41.38
2023-05-23T13:36:18.129Z,41.11
2023-05-23T13:41:23.692Z,41.84
2023-05-23T13:46:29.587Z,41.47
2023-05-23T13:51:36.974Z,41.27
2023-05-23T13:56:42.641Z,40.48
2023-05-23T14:01:48.930Z,40.84
2023-05-23T14:06:55.041Z,41.02
2023-05-23T14:12:00.925Z,42.10
2023-05-23T14:17:06.945Z,42.37
2023-05-23T14:22:12.730Z,41.89
2023-05-23T14:27:19.233Z,42.48
2023-05-23T14:32:25.221Z,42.25
2023-05-23T14:37:31.121Z,42.83
2023-05-23T14:42:37.135Z,42.90
2023-05-23T14:47:43.085Z,43.72
2023-05-23T14:52:48.878Z,43.38
2023-05-23T14:57:54.727Z,43.43
2023-05-23T15:03:00.525Z,43.37
2023-05-23T15:08:06.086Z,43.37
2023-05-23T15:13:11.998Z,43.42
2023-05-23T15:18:31.702Z,43.96
2023-05-23T15:23:25.236Z,43.78
2023-05-23T15:28:31.409Z,44.11
2023-05-23T15:33:37.078Z,44.51
2023-05-23T15:38:43.890Z,44.71
2023-05-23T15:43:49.590Z,45.63
2023-05-23T15:48:56.937Z,45.53
2023-05-23T15:54:02.620Z,45.83
2023-05-23T15:59:08.275Z,45.96
2023-05-23T16:04:14.024Z,45.91
2023-05-23T16:09:19.839Z,45.31
2023-05-23T16:14:25.898Z,44.95
2023-05-23T16:19:31.694Z,44.96
2023-05-23T16:24:37.436Z,45.02
2023-05-23T16:29:43.114Z,45.90
2023-05-23T16:34:52.916Z,45.62
2023-05-23T16:39:56.255Z,45.16
2023-05-23T16:45:02.055Z,46.13
2023-05-23T16:50:09.290Z,46.76
2023-05-23T16:55:14.992Z,46.77
2023-05-23T17:00:21.407Z,47.22
2023-05-23T17:05:27.179Z,49.10
2023-05-23T17:10:32.951Z,51.38
2023-05-23T17:15:38.650Z,52.99
2023-05-23T17:20:44.375Z,54.54
2023-05-23T17:25:50.047Z,55.46
2023-05-23T17:30:55.720Z,56.96
2023-05-23T17:36:01.379Z,58.02
2023-05-23T17:41:07.266Z,58.92
2023-05-23T17:46:12.979Z,59.24
2023-05-23T17:51:18.917Z,60.93
2023-05-23T17:56:25.385Z,60.80
2023-05-23T18:01:31.112Z,62.07
2023-05-23T18:06:36.821Z,62.88
2023-05-23T18:11:43.133Z,63.15
2023-05-23T18:16:49.017Z,64.07
2023-05-23T18:21:54.869Z,64.01
2023-05-23T18:27:01.056Z,64.81
2023-05-23T18:32:07.345Z,65.38
2023-05-23T18:37:13.073Z,65.46
2023-05-23T18:42:18.772Z,66.31
2023-05-23T18:47:24.615Z,67.43
2023-05-23T18:52:31.102Z,68.03
2023-05-23T18:57:37.107Z,68.10
2023-05-23T19:02:44.625Z,69.14
2023-05-23T19:07:50.814Z,69.22
2023-05-23T19:12:56.636Z,69.93
2023-05-23T19:18:02.466Z,70.65
2023-05-23T19:23:08.337Z,70.51
2023-05-23T19:28:15.482Z,70.38
2023-05-23T19:33:22.338Z,70.80
2023-05-23T19:38:27.969Z,70.98
2023-05-23T19:43:33.603Z,71.67
2023-05-23T19:48:39.164Z,71.68
2023-05-23T19:53:44.832Z,72.62
2023-05-23T19:58:50.404Z,72.85
2023-05-23T20:03:56.025Z,73.49
2023-05-23T20:09:02.160Z,73.46
2023-05-23T20:14:08.214Z,74.23
2023-05-23T20:19:14.535Z,74.48
2023-05-23T20:24:20.452Z,75.16
2023-05-23T20:29:26.428Z,75.45
2023-05-23T20:34:32.345Z,75.28
2023-05-23T20:39:38.848Z,75.58
2023-05-23T20:44:44.984Z,76.18
2023-05-23T20:49:50.669Z,76.20
2023-05-23T20:54:56.333Z,76.36
2023-05-23T21:00:02.068Z,76.89
2023-05-23T21:05:09.046Z,77.13
2023-05-23T21:10:15.329Z,76.85
2023-05-23T21:15:21.470Z,77.11
2023-05-23T21:20:29.198Z,77.16
2023-05-23T21:25:35.044Z,77.20
2023-05-23T21:30:40.877Z,77.59
2023-05-23T21:35:46.792Z,78.09
2023-05-23T21:40:52.360Z,78.15
2023-05-23T21:45:58.157Z,78.22
2023-05-23T21:51:03.883Z,78.02
2023-05-23T21:56:09.555Z,78.25
2023-05-23T22:01:15.169Z,78.25
2023-05-23T22:06:20.888Z,78.79
2023-05-23T22:11:27.587Z,78.22
2023-05-23T22:16:33.707Z,78.18
2023-05-23T22:21:39.639Z,78.35
2023-05-23T22:26:45.366Z,78.48
2023-05-23T22:31:51.063Z,78.47
2023-05-23T22:36:59.692Z,78.79
2023-05-23T22:42:04.251Z,78.69
2023-05-23T22:47:11.415Z,78.39
2023-05-23T22:52:17.541Z,78.53
2023-05-23T22:57:23.089Z,78.29
2023-05-23T23:02:28.661Z,78.07
2023-05-23T23:07:34.318Z,78.71
2023-05-23T23:12:40.096Z,79.02
2023-05-23T23:17:47.965Z,78.76
2023-05-23T23:22:53.905Z,78.81
2023-05-23T23:27:59.448Z,78.80
2023-05-23T23:33:05.136Z,79.08
2023-05-23T23:38:10.780Z,79.21
2023-05-23T23:43:16.451Z,79.57
2023-05-23T23:48:22.003Z,79.92
2023-05-23T23:53:27.701Z,80.30
2023-05-23T23:58:33.272Z,80.11
